createdAt,value
2022-12-04T00:02:25.390Z,5.66
2022-12-04T00:04:52.104Z,5.70
2022-12-04T00:07:18.875Z,5.68
2022-12-04T00:09:45.579Z,5.73
2022-12-04T00:12:12.227Z,5.70
2022-12-04T00:15:00.716Z,5.69
2022-12-04T00:17:25.489Z,5.84
2022-12-04T00:19:52.287Z,5.74
2022-12-04T00:22:19.081Z,5.73
2022-12-04T00:24:45.728Z,5.69
2022-12-04T00:27:12.391Z,5.66
2022-12-04T00:29:39.024Z,5.74
2022-12-04T00:32:05.763Z,5.75
2022-12-04T00:34:32.461Z,5.77
2022-12-04T00:36:59.092Z,5.78
2022-12-04T00:39:25.798Z,5.80
2022-12-04T00:41:52.421Z,5.76
2022-12-04T00:44:19.072Z,5.78
2022-12-04T00:46:45.815Z,5.75
2022-12-04T00:49:12.435Z,5.74
2022-12-04T00:51:39.062Z,5.74
2022-12-04T00:54:05.688Z,5.72
2022-12-04T00:56:32.325Z,5.72
2022-12-04T00:58:59.442Z,5.75
2022-12-04T01:01:29.577Z,5.74
2022-12-04T01:03:56.298Z,5.78
2022-12-04T01:06:27.471Z,5.69
2022-12-04T01:08:54.460Z,5.71
2022-12-04T01:11:21.517Z,5.79
2022-12-04T01:13:48.189Z,5.67
2022-12-04T01:16:22.923Z,5.67
2022-12-04T01:18:49.862Z,5.66
2022-12-04T01:21:16.762Z,5.68
2022-12-04T01:23:43.396Z,5.63
2022-12-04T01:26:10.119Z,5.66
2022-12-04T01:28:36.769Z,5.67
2022-12-04T01:31:11.181Z,5.73
2022-12-04T01:33:37.994Z,5.75
2022-12-04T01:36:06.015Z,5.72
2022-12-04T01:38:33.225Z,5.67
2022-12-04T01:40:59.878Z,5.70
2022-12-04T01:43:26.547Z,5.51
2022-12-04T01:45:54.425Z,5.55
2022-12-04T01:48:53.287Z,5.64
2022-12-04T01:51:29.047Z,5.45
2022-12-04T01:54:09.033Z,5.47
2022-12-04T01:56:41.379Z,5.48
2022-12-04T01:59:08.393Z,5.47
2022-12-04T02:01:38.757Z,5.37
2022-12-04T02:04:05.415Z,5.33
2022-12-04T02:06:32.153Z,5.42
2022-12-04T02:08:58.828Z,5.36
2022-12-04T02:11:36.992Z,5.38
2022-12-04T02:14:18.745Z,5.41
2022-12-04T02:16:47.218Z,5.34
2022-12-04T02:19:19.413Z,5.39
2022-12-04T02:21:46.172Z,5.37
2022-12-04T02:24:50.577Z,5.43
2022-12-04T02:27:36.186Z,5.50
2022-12-04T02:30:04.947Z,5.45
2022-12-04T02:32:43.305Z,5.55
2022-12-04T02:35:14.459Z,5.47
2022-12-04T02:37:44.554Z,5.49
2022-12-04T02:40:19.966Z,5.51
2022-12-04T02:42:59.992Z,5.51
2022-12-04T02:45:29.857Z,5.56
2022-12-04T02:47:56.717Z,5.58
2022-12-04T02:50:23.394Z,5.42
2022-12-04T02:53:05.876Z,5.53
2022-12-04T02:55:35.818Z,5.59
2022-12-04T02:58:25.591Z,5.61
2022-12-04T03:00:52.512Z,5.58
2022-12-04T03:03:21.874Z,5.59
2022-12-04T03:05:54.315Z,5.57
2022-12-04T03:08:23.212Z,5.60
2022-12-04T03:10:52.042Z,5.60
2022-12-04T03:13:20.436Z,5.63
2022-12-04T03:15:48.565Z,5.65
2022-12-04T03:18:26.327Z,5.76
2022-12-04T03:20:55.581Z,5.63
2022-12-04T03:23:34.573Z,5.61
2022-12-04T03:26:15.120Z,5.64
2022-12-04T03:28:49.882Z,5.65
2022-12-04T03:31:16.613Z,5.64
2022-12-04T03:33:45.332Z,5.60
2022-12-04T03:36:27.365Z,5.68
2022-12-04T03:39:15.780Z,5.62
2022-12-04T03:42:05.252Z,5.67
2022-12-04T03:44:48.847Z,5.71
2022-12-04T03:47:20.920Z,5.73
2022-12-04T03:50:17.914Z,5.72
2022-12-04T03:52:58.370Z,5.71
2022-12-04T03:55:27.372Z,5.70
2022-12-04T03:57:57.127Z,5.62
2022-12-04T04:00:23.776Z,5.64
2022-12-04T04:02:52.338Z,5.71
2022-12-04T04:05:19.067Z,5.71
2022-12-04T04:07:54.685Z,5.78
2022-12-04T04:10:24.219Z,5.71
2022-12-04T04:13:00.781Z,5.67
2022-12-04T04:15:27.486Z,5.71
2022-12-04T04:17:54.211Z,5.76
2022-12-04T04:20:27.279Z,5.69
2022-12-04T04:22:56.350Z,5.78
2022-12-04T04:25:23.213Z,5.72
2022-12-04T04:27:57.358Z,5.76
2022-12-04T04:30:23.991Z,5.80
2022-12-04T04:32:56.205Z,5.90
2022-12-04T04:35:38.440Z,5.86
2022-12-04T04:38:25.173Z,5.87
2022-12-04T04:41:03.934Z,5.92
2022-12-04T04:43:50.720Z,5.95
2022-12-04T04:46:20.667Z,5.91
2022-12-04T04:48:55.138Z,5.91
2022-12-04T04:51:21.787Z,5.91
2022-12-04T04:53:51.929Z,5.89
2022-12-04T04:56:18.650Z,5.86
2022-12-04T04:58:45.453Z,5.91
2022-12-04T05:01:22.723Z,5.86
2022-12-04T05:03:49.477Z,5.86
2022-12-04T05:06:16.139Z,5.84
2022-12-04T05:08:42.783Z,5.82
2022-12-04T05:11:11.815Z,5.83
2022-12-04T05:13:38.534Z,5.86
2022-12-04T05:16:06.572Z,5.85
2022-12-04T05:18:33.784Z,5.85
2022-12-04T05:21:04.699Z,5.80
2022-12-04T05:23:31.319Z,5.85
2022-12-04T05:26:01.465Z,5.85
2022-12-04T05:28:28.107Z,5.87
2022-12-04T05:30:58.988Z,5.86
2022-12-04T05:33:25.679Z,5.84
2022-12-04T05:36:02.863Z,5.83
2022-12-04T05:38:29.504Z,5.83
2022-12-04T05:40:58.251Z,5.85
2022-12-04T05:43:24.892Z,5.87
2022-12-04T05:45:51.523Z,5.85
2022-12-04T05:48:18.195Z,5.85
2022-12-04T05:50:44.823Z,5.90
2022-12-04T05:53:11.442Z,5.87
2022-12-04T05:55:38.065Z,5.90
2022-12-04T05:58:04.924Z,5.91
2022-12-04T06:00:31.664Z,5.89
2022-12-04T06:02:58.355Z,5.88
2022-12-04T06:05:25.057Z,5.89
2022-12-04T06:07:51.717Z,5.88
2022-12-04T06:10:18.430Z,5.89
2022-12-04T06:12:45.059Z,5.90
2022-12-04T06:15:11.698Z,5.91
2022-12-04T06:17:38.324Z,5.94
2022-12-04T06:20:11.252Z,5.89
2022-12-04T06:22:38.464Z,5.89
2022-12-04T06:25:05.306Z,5.91
2022-12-04T06:27:31.954Z,5.82
2022-12-04T06:29:58.991Z,5.85
2022-12-04T06:32:25.843Z,5.95
2022-12-04T06:34:53.387Z,5.88
2022-12-04T06:37:20.865Z,5.93
2022-12-04T06:39:47.494Z,5.90
2022-12-04T06:42:14.130Z,5.90
2022-12-04T06:44:40.775Z,6.03
2022-12-04T06:47:08.054Z,6.07
2022-12-04T06:49:34.722Z,6.06
2022-12-04T06:52:01.356Z,6.05
2022-12-04T06:54:27.969Z,6.03
2022-12-04T06:56:54.701Z,6.04
2022-12-04T06:59:21.344Z,6.09
2022-12-04T07:01:48.026Z,6.12
2022-12-04T07:04:14.798Z,6.15
2022-12-04T07:06:41.532Z,6.20
2022-12-04T07:09:15.579Z,6.24
2022-12-04T07:11:42.298Z,6.22
2022-12-04T07:14:09.039Z,6.22
2022-12-04T07:16:40.719Z,6.24
2022-12-04T07:19:12.596Z,6.26
2022-12-04T07:21:39.236Z,6.27
2022-12-04T07:24:06.018Z,6.34
2022-12-04T07:26:32.674Z,6.32
2022-12-04T07:28:59.507Z,6.35
2022-12-04T07:31:26.789Z,6.39
2022-12-04T07:33:53.589Z,6.36
2022-12-04T07:36:20.299Z,6.36
2022-12-04T07:38:46.958Z,6.40
2022-12-04T07:41:13.605Z,6.43
2022-12-04T07:43:40.495Z,6.46
2022-12-04T07:46:14.576Z,6.46
2022-12-04T07:48:41.293Z,6.49
2022-12-04T07:51:12.412Z,6.44
2022-12-04T07:53:39.061Z,6.45
2022-12-04T07:56:06.057Z,6.48
2022-12-04T07:58:32.894Z,6.43
2022-12-04T08:01:09.298Z,6.46
2022-12-04T08:03:36.475Z,6.46
2022-12-04T08:06:03.634Z,6.46
2022-12-04T08:08:30.245Z,6.45
2022-12-04T08:10:57.516Z,6.52
2022-12-04T08:13:24.249Z,6.56
2022-12-04T08:15:50.921Z,6.54
2022-12-04T08:18:17.702Z,6.54
2022-12-04T08:20:44.375Z,6.55
2022-12-04T08:23:11.018Z,6.58
2022-12-04T08:25:41.045Z,6.59
2022-12-04T08:28:07.723Z,6.61
2022-12-04T08:30:35.085Z,6.59
2022-12-04T08:33:01.802Z,6.69
2022-12-04T08:35:28.479Z,6.73
2022-12-04T08:37:55.119Z,6.70
2022-12-04T08:40:21.778Z,6.76
2022-12-04T08:42:48.512Z,6.74
2022-12-04T08:45:15.144Z,6.74
2022-12-04T08:47:41.774Z,6.76
2022-12-04T08:50:08.580Z,6.78
2022-12-04T08:52:35.312Z,6.77
2022-12-04T08:55:01.996Z,6.82
2022-12-04T08:57:28.622Z,6.81
2022-12-04T08:59:55.512Z,6.81
2022-12-04T09:02:22.345Z,6.77
2022-12-04T09:04:49.056Z,6.79
2022-12-04T09:07:15.745Z,6.84
2022-12-04T09:09:47.897Z,6.81
2022-12-04T09:12:14.943Z,6.81
2022-12-04T09:14:41.557Z,6.88
2022-12-04T09:17:08.171Z,6.91
2022-12-04T09:19:34.789Z,7.01
2022-12-04T09:22:01.403Z,6.92
2022-12-04T09:24:29.975Z,6.90
2022-12-04T09:26:56.594Z,6.98
2022-12-04T09:29:23.257Z,6.98
2022-12-04T09:31:49.897Z,6.99
2022-12-04T09:34:16.516Z,6.92
2022-12-04T09:36:43.147Z,6.96
2022-12-04T09:39:09.764Z,7.00
2022-12-04T09:41:36.277Z,7.03
2022-12-04T09:44:03.752Z,7.07
2022-12-04T09:46:39.543Z,7.04
2022-12-04T09:49:28.057Z,7.02
2022-12-04T09:51:55.598Z,7.07
2022-12-04T09:54:24.052Z,7.08
2022-12-04T09:57:01.787Z,7.10
2022-12-04T09:59:29.884Z,7.14
2022-12-04T10:02:21.118Z,7.18
2022-12-04T10:04:47.876Z,7.22
2022-12-04T10:07:16.824Z,7.26
2022-12-04T10:10:20.866Z,7.29
2022-12-04T10:12:59.003Z,7.35
2022-12-04T10:15:40.926Z,7.38
2022-12-04T10:18:26.299Z,7.46
2022-12-04T10:21:35.044Z,7.51
2022-12-04T10:24:26.496Z,7.57
2022-12-04T10:26:53.117Z,7.58
2022-12-04T10:29:26.348Z,7.58
2022-12-04T10:31:54.356Z,7.69
2022-12-04T10:34:25.062Z,7.71
2022-12-04T10:36:53.307Z,7.80
2022-12-04T10:39:29.818Z,7.86
2022-12-04T10:42:14.396Z,7.89
2022-12-04T10:44:41.040Z,7.85
2022-12-04T10:47:09.086Z,7.88
2022-12-04T10:49:35.747Z,7.91
2022-12-04T10:52:02.389Z,8.04
2022-12-04T10:54:50.946Z,8.08
2022-12-04T10:57:17.592Z,8.05
2022-12-04T10:59:55.075Z,8.07
2022-12-04T11:02:29.297Z,8.21
2022-12-04T11:04:57.010Z,8.15
2022-12-04T11:07:32.163Z,8.19
2022-12-04T11:10:01.147Z,8.23
2022-12-04T11:12:27.785Z,8.26
2022-12-04T11:15:06.222Z,8.30
2022-12-04T11:17:32.854Z,8.37
2022-12-04T11:20:06.627Z,8.38
2022-12-04T11:22:33.262Z,8.38
2022-12-04T11:24:59.890Z,8.29
2022-12-04T11:27:32.743Z,8.36
2022-12-04T11:30:01.262Z,8.35
2022-12-04T11:32:29.961Z,8.33
2022-12-04T11:34:59.655Z,8.30
2022-12-04T11:37:30.683Z,8.31
2022-12-04T11:39:57.629Z,8.31
2022-12-04T11:42:26.113Z,8.44
2022-12-04T11:45:07.693Z,8.38
2022-12-04T11:47:34.328Z,8.45
2022-12-04T11:50:23.315Z,8.45
2022-12-04T11:53:17.550Z,8.39
2022-12-04T11:56:14.398Z,8.32
2022-12-04T11:59:18.000Z,8.28
2022-12-04T12:01:57.924Z,8.35
2022-12-04T12:04:43.138Z,8.34
2022-12-04T12:07:22.389Z,8.30
2022-12-04T12:09:58.703Z,8.28
2022-12-04T12:13:03.041Z,8.32
2022-12-04T12:16:07.277Z,8.41
2022-12-04T12:18:42.910Z,8.38
2022-12-04T12:21:32.889Z,8.35
2022-12-04T12:24:27.280Z,8.39
2022-12-04T12:26:59.861Z,8.42
2022-12-04T12:29:54.057Z,8.31
2022-12-04T12:32:33.063Z,8.34
2022-12-04T12:34:59.695Z,8.34
2022-12-04T12:37:31.047Z,8.38
2022-12-04T12:40:12.545Z,8.33
2022-12-04T12:42:43.905Z,8.34
2022-12-04T12:45:19.669Z,8.39
2022-12-04T12:47:46.864Z,8.33
2022-12-04T12:50:24.738Z,8.33
2022-12-04T12:53:03.224Z,8.31
2022-12-04T12:55:36.418Z,8.29
2022-12-04T12:58:18.144Z,8.31
2022-12-04T13:01:37.662Z,8.34
2022-12-04T13:04:11.661Z,8.35
2022-12-04T13:06:39.873Z,8.31
2022-12-04T13:09:30.287Z,8.36
2022-12-04T13:12:06.432Z,8.44
2022-12-04T13:14:33.654Z,8.55
2022-12-04T13:17:30.959Z,8.58
2022-12-04T13:19:57.986Z,8.54
2022-12-04T13:22:30.588Z,8.56
2022-12-04T13:25:03.112Z,8.58
2022-12-04T13:27:58.573Z,8.63
2022-12-04T13:30:45.001Z,8.65
2022-12-04T13:33:23.325Z,8.68
2022-12-04T13:36:28.903Z,8.69
2022-12-04T13:39:17.134Z,8.66
2022-12-04T13:41:43.788Z,8.60
2022-12-04T13:44:14.777Z,8.60
2022-12-04T13:46:53.917Z,8.66
2022-12-04T13:49:20.412Z,8.72
2022-12-04T13:51:48.018Z,8.67
2022-12-04T13:54:14.502Z,8.62
2022-12-04T13:56:48.549Z,8.68
2022-12-04T13:59:28.630Z,8.66
2022-12-04T14:01:57.212Z,8.65
2022-12-04T14:04:35.849Z,8.70
2022-12-04T14:07:03.084Z,8.69
2022-12-04T14:09:40.657Z,8.72
2022-12-04T14:12:10.052Z,8.79
2022-12-04T14:14:40.050Z,8.85
2022-12-04T14:17:14.531Z,8.82
2022-12-04T14:19:41.204Z,8.71
2022-12-04T14:22:31.962Z,8.68
2022-12-04T14:25:14.650Z,8.76
2022-12-04T14:27:41.127Z,8.74
2022-12-04T14:30:28.843Z,8.80
2022-12-04T14:33:31.001Z,8.80
2022-12-04T14:36:05.614Z,8.82
2022-12-04T14:38:32.252Z,8.83
2022-12-04T14:40:59.004Z,8.80
2022-12-04T14:43:33.329Z,8.86
2022-12-04T14:46:24.200Z,8.80
2022-12-04T14:49:05.780Z,8.78
2022-12-04T14:51:44.169Z,8.77
2022-12-04T14:54:38.985Z,8.72
2022-12-04T14:57:17.447Z,8.67
2022-12-04T14:59:47.245Z,8.66
2022-12-04T15:02:22.094Z,8.67
2022-12-04T15:04:49.273Z,8.68
2022-12-04T15:07:26.453Z,8.63
2022-12-04T15:09:54.733Z,8.70
2022-12-04T15:12:23.771Z,8.60
2022-12-04T15:14:50.420Z,8.56
2022-12-04T15:17:17.846Z,8.55
2022-12-04T15:19:44.518Z,8.57
2022-12-04T15:22:22.554Z,8.52
2022-12-04T15:24:50.093Z,8.57
2022-12-04T15:27:16.733Z,8.52
2022-12-04T15:29:43.362Z,8.51
2022-12-04T15:32:11.080Z,8.52
2022-12-04T15:34:40.685Z,8.49
2022-12-04T15:37:12.224Z,8.50
2022-12-04T15:39:38.957Z,8.49
2022-12-04T15:42:17.364Z,8.47
2022-12-04T15:45:03.542Z,8.49
2022-12-04T15:47:32.094Z,8.47
2022-12-04T15:50:09.020Z,8.46
2022-12-04T15:52:35.950Z,8.45
2022-12-04T15:55:06.269Z,8.51
2022-12-04T15:57:40.451Z,8.47
2022-12-04T16:00:22.289Z,8.53
2022-12-04T16:02:48.923Z,8.49
2022-12-04T16:05:21.404Z,8.46
2022-12-04T16:07:58.485Z,8.47
2022-12-04T16:10:34.937Z,8.44
2022-12-04T16:13:03.009Z,8.47
2022-12-04T16:15:38.373Z,8.39
2022-12-04T16:18:05.855Z,8.45
2022-12-04T16:20:34.433Z,8.38
2022-12-04T16:23:01.093Z,8.41
2022-12-04T16:25:27.973Z,8.56
2022-12-04T16:27:54.608Z,8.45
2022-12-04T16:30:21.298Z,8.41
2022-12-04T16:32:48.053Z,8.40
2022-12-04T16:35:16.677Z,8.40
2022-12-04T16:37:43.326Z,8.37
2022-12-04T16:40:11.762Z,8.39
2022-12-04T16:42:38.516Z,8.42
2022-12-04T16:45:20.156Z,8.36
2022-12-04T16:47:47.411Z,8.35
2022-12-04T16:50:14.139Z,8.37
2022-12-04T16:52:40.827Z,8.39
2022-12-04T16:55:18.466Z,8.40
2022-12-04T16:57:45.095Z,8.42
2022-12-04T17:00:15.354Z,8.43
2022-12-04T17:02:42.026Z,8.39
2022-12-04T17:05:19.664Z,8.40
2022-12-04T17:07:46.341Z,8.42
2022-12-04T17:10:13.232Z,8.43
2022-12-04T17:12:40.485Z,8.50
2022-12-04T17:15:07.545Z,8.44
2022-12-04T17:17:34.182Z,8.39
2022-12-04T17:20:00.811Z,8.38
2022-12-04T17:22:27.536Z,8.38
2022-12-04T17:24:56.247Z,8.41
2022-12-04T17:27:23.278Z,8.41
2022-12-04T17:29:49.907Z,8.36
2022-12-04T17:32:16.536Z,8.43
2022-12-04T17:34:43.173Z,8.37
2022-12-04T17:37:09.897Z,8.36
2022-12-04T17:39:36.511Z,8.38
2022-12-04T17:42:03.142Z,8.44
2022-12-04T17:44:29.798Z,8.44
2022-12-04T17:46:56.507Z,8.41
2022-12-04T17:49:23.199Z,8.44
2022-12-04T17:51:49.844Z,8.49
2022-12-04T17:54:16.469Z,8.44
2022-12-04T17:56:47.756Z,8.44
2022-12-04T17:59:16.190Z,8.42
2022-12-04T18:01:43.090Z,8.44
2022-12-04T18:04:09.746Z,8.38
2022-12-04T18:06:37.929Z,8.42
2022-12-04T18:09:05.350Z,8.42
2022-12-04T18:11:33.023Z,8.41
2022-12-04T18:14:12.339Z,8.35
2022-12-04T18:16:49.596Z,8.33
2022-12-04T18:19:16.471Z,8.30
2022-12-04T18:21:43.187Z,8.29
2022-12-04T18:24:09.835Z,8.24
2022-12-04T18:26:39.800Z,8.33
2022-12-04T18:29:06.438Z,8.28
2022-12-04T18:31:33.216Z,8.34
2022-12-04T18:33:59.918Z,8.30
2022-12-04T18:36:31.554Z,8.41
2022-12-04T18:39:00.441Z,8.33
2022-12-04T18:41:27.565Z,8.33
2022-12-04T18:43:54.270Z,8.35
2022-12-04T18:46:21.095Z,8.29
2022-12-04T18:48:48.150Z,8.30
2022-12-04T18:51:34.944Z,8.31
2022-12-04T18:54:06.858Z,8.30
2022-12-04T18:56:34.016Z,8.29
2022-12-04T18:59:08.621Z,8.27
2022-12-04T19:01:35.299Z,8.30
2022-12-04T19:04:03.805Z,8.35
2022-12-04T19:06:32.204Z,8.29
2022-12-04T19:09:00.217Z,8.34
2022-12-04T19:11:26.921Z,8.34
2022-12-04T19:13:54.476Z,8.40
2022-12-04T19:16:21.237Z,8.43
2022-12-04T19:18:47.942Z,8.39
2022-12-04T19:21:14.597Z,8.41
2022-12-04T19:23:41.628Z,8.36
2022-12-04T19:26:08.265Z,8.43
2022-12-04T19:28:35.238Z,8.34
2022-12-04T19:31:01.916Z,8.38
2022-12-04T19:33:28.556Z,8.39
2022-12-04T19:35:58.729Z,8.39
2022-12-04T19:38:25.631Z,8.39
2022-12-04T19:41:05.745Z,8.36
2022-12-04T19:43:32.405Z,8.36
2022-12-04T19:45:59.873Z,8.38
2022-12-04T19:48:26.803Z,8.41
2022-12-04T19:50:53.435Z,8.36
2022-12-04T19:53:20.071Z,8.34
2022-12-04T19:55:46.727Z,8.25
2022-12-04T19:58:13.468Z,8.28
2022-12-04T20:00:40.138Z,8.23
2022-12-04T20:03:06.759Z,8.25
2022-12-04T20:05:36.152Z,8.25
2022-12-04T20:10:28.285Z,8.32
2022-12-04T20:12:54.929Z,8.34
2022-12-04T20:15:21.586Z,8.27
2022-12-04T20:17:48.254Z,8.22
2022-12-04T20:20:14.878Z,8.24
2022-12-04T20:22:41.534Z,8.23
2022-12-04T20:25:08.404Z,8.27
2022-12-04T20:27:35.074Z,8.27
2022-12-04T20:30:01.720Z,8.29
2022-12-04T20:32:28.356Z,8.35
2022-12-04T20:34:55.039Z,8.30
2022-12-04T20:37:21.733Z,8.34
2022-12-04T20:39:48.398Z,8.39
2022-12-04T20:42:15.041Z,8.29
2022-12-04T20:44:41.676Z,8.27
2022-12-04T20:47:08.348Z,8.26
2022-12-04T20:49:35.039Z,8.23
2022-12-04T20:52:01.667Z,8.24
2022-12-04T20:54:28.798Z,8.25
2022-12-04T20:56:55.663Z,8.23
2022-12-04T20:59:22.724Z,8.25
2022-12-04T21:01:49.465Z,8.25
2022-12-04T21:04:16.298Z,8.24
2022-12-04T21:06:42.977Z,8.33
2022-12-04T21:09:14.827Z,8.32
2022-12-04T21:11:43.428Z,8.24
2022-12-04T21:14:18.196Z,8.22
2022-12-04T21:16:45.185Z,8.26
2022-12-04T21:19:13.523Z,8.28
2022-12-04T21:21:40.466Z,8.29
2022-12-04T21:24:08.115Z,8.30
2022-12-04T21:26:34.842Z,8.36
2022-12-04T21:29:01.694Z,8.33
2022-12-04T21:31:28.529Z,8.31
2022-12-04T21:33:55.899Z,8.27
2022-12-04T21:36:22.550Z,8.24
2022-12-04T21:38:49.236Z,8.19
2022-12-04T21:41:15.912Z,8.25
2022-12-04T21:43:42.544Z,8.24
2022-12-04T21:46:09.735Z,8.19
2022-12-04T21:48:36.679Z,8.22
2022-12-04T21:51:13.275Z,8.09
2022-12-04T21:53:53.787Z,8.13
2022-12-04T21:56:23.883Z,8.03
2022-12-04T21:58:50.836Z,7.91
2022-12-04T22:01:17.884Z,7.82
2022-12-04T22:03:44.598Z,7.70
2022-12-04T22:06:11.259Z,7.69
2022-12-04T22:08:38.854Z,7.71
2022-12-04T22:11:06.472Z,7.71
2022-12-04T22:13:33.419Z,7.62
2022-12-04T22:16:04.131Z,7.68
2022-12-04T22:18:30.798Z,7.58
2022-12-04T22:20:57.471Z,7.56
2022-12-04T22:23:24.108Z,7.56
2022-12-04T22:25:50.733Z,7.63
2022-12-04T22:28:17.440Z,7.67
2022-12-04T22:30:44.086Z,7.71
2022-12-04T22:33:10.800Z,7.68
2022-12-04T22:35:37.509Z,7.54
2022-12-04T22:38:04.128Z,7.48
2022-12-04T22:40:30.754Z,7.45
2022-12-04T22:42:57.430Z,7.44
2022-12-04T22:45:24.118Z,7.58
2022-12-04T22:47:50.780Z,7.48
2022-12-04T22:50:17.562Z,7.43
2022-12-04T22:52:44.235Z,7.44
2022-12-04T22:55:10.870Z,7.44
2022-12-04T22:57:37.504Z,7.41
2022-12-04T23:00:04.470Z,7.42
2022-12-04T23:02:32.480Z,7.47
2022-12-04T23:04:59.195Z,7.47
2022-12-04T23:07:25.849Z,7.45
2022-12-04T23:09:52.487Z,7.46
2022-12-04T23:12:19.116Z,7.45
2022-12-04T23:14:45.743Z,7.46
2022-12-04T23:17:12.377Z,7.52
2022-12-04T23:19:39.144Z,7.56
2022-12-04T23:22:05.776Z,7.56
2022-12-04T23:24:32.404Z,7.55
2022-12-04T23:26:59.072Z,7.47
2022-12-04T23:32:12.379Z,7.51
2022-12-04T23:34:39.011Z,7.46
2022-12-04T23:37:05.632Z,7.41
2022-12-04T23:39:32.245Z,7.43
2022-12-04T23:41:58.872Z,7.38
2022-12-04T23:44:25.499Z,7.37
2022-12-04T23:46:52.270Z,7.54
2022-12-04T23:49:18.927Z,7.49
2022-12-04T23:51:45.643Z,7.55
2022-12-04T23:54:12.258Z,7.39
2022-12-04T23:56:38.881Z,7.38
2022-12-04T23:59:05.509Z,7.35
